Time;durP1;ratioP1;P1;durP2;ratioP2;P2;SDS_P1;SDS_P2;PMS_P1;PMS_P2;Temp;Humidity;BMP_temperature;BMP_pressure;BME280_temperature;BME280_humidity;BME280_pressure;Samples;Min_cycle;Max_cycle;Signal;HPM_P1;HPM_P2
2023/10/22 00:01:13;;;;;;;5.13;1.80;;;;;;;;;;5047476;28;20132;-66
2023/10/22 00:03:39;;;;;;;4.75;1.58;;;;;;;;;;5048883;28;20179;-66
2023/10/22 00:06:06;;;;;;;4.47;1.50;;;;;;;;;;5053726;28;20041;-66
2023/10/22 00:08:32;;;;;;;4.25;1.70;;;;;;;;;;5053298;28;20040;-66
2023/10/22 00:10:58;;;;;;;5.28;1.95;;;;;;;;;;5030459;28;20049;-66
2023/10/22 00:13:24;;;;;;;4.25;1.58;;;;;;;;;;5049766;28;20468;-68
2023/10/22 00:15:50;;;;;;;5.50;1.63;;;;;;;;;;5034366;28;20546;-68
2023/10/22 00:18:16;;;;;;;5.68;1.67;;;;;;;;;;5048917;28;20056;-68
2023/10/22 00:20:44;;;;;;;7.05;2.10;;;;;;;;;;5047137;28;20051;-67
2023/10/22 00:23:09;;;;;;;6.47;1.60;;;16.40;97.50;;;;;;5051628;28;20040;-67
2023/10/22 00:25:36;;;;;;;6.75;2.13;;;;;;;;;;5047300;28;20380;-67
2023/10/22 00:28:03;;;;;;;5.25;1.55;;;16.40;98.00;;;;;;5051906;28;20362;-67
2023/10/22 00:30:30;;;;;;;4.88;1.45;;;;;;;;;;5049690;28;20816;-67
2023/10/22 00:32:56;;;;;;;5.32;1.65;;;;;;;;;;5048158;28;20182;-65
2023/10/22 00:35:22;;;;;;;4.18;1.77;;;16.70;98.10;;;;;;5044896;28;20061;-66
2023/10/22 00:37:48;;;;;;;3.80;1.48;;;16.40;97.90;;;;;;5052005;28;20482;-66
2023/10/22 00:40:14;;;;;;;6.72;1.63;;;16.70;98.00;;;;;;5049277;28;20040;-67
2023/10/22 00:42:40;;;;;;;5.10;1.90;;;;;;;;;;5049648;28;20076;-66
2023/10/22 00:45:07;;;;;;;6.40;1.70;;;16.40;96.50;;;;;;5049917;28;20112;-66
2023/10/22 00:47:33;;;;;;;4.85;1.75;;;;;;;;;;5049997;28;20136;-66
2023/10/22 00:49:59;;;;;;;4.15;1.40;;;16.50;97.90;;;;;;5051693;28;20045;-66
2023/10/22 00:52:26;;;;;;;4.82;1.70;;;;;;;;;;5048059;28;20057;-69
2023/10/22 00:54:52;;;;;;;5.20;1.77;;;16.70;96.60;;;;;;5051754;28;20453;-66
2023/10/22 00:57:18;;;;;;;4.70;1.67;;;;;;;;;;5015812;28;20045;-66
2023/10/22 00:59:44;;;;;;;5.28;1.80;;;;;;;;;;5031973;28;20447;-66
2023/10/22 01:02:10;;;;;;;5.38;1.70;;;;;;;;;;5049727;28;20049;-66
2023/10/22 01:04:37;;;;;;;4.63;1.60;;;;;;;;;;5034683;28;20093;-66
2023/10/22 01:07:05;;;;;;;4.88;1.65;;;;;;;;;;5046611;28;20094;-66
2023/10/22 01:09:31;;;;;;;7.05;1.67;;;;;;;;;;5050836;28;20068;-67
2023/10/22 01:11:58;;;;;;;5.43;1.70;;;16.60;96.60;;;;;;5048970;28;20075;-68
2023/10/22 01:14:24;;;;;;;4.97;1.70;;;16.40;97.70;;;;;;5053262;28;20138;-67
2023/10/22 01:16:50;;;;;;;4.32;1.58;;;16.50;97.70;;;;;;5051148;28;20041;-66
2023/10/22 01:19:16;;;;;;;4.00;1.60;;;16.60;97.70;;;;;;5048791;28;20182;-65
2023/10/22 01:21:42;;;;;;;6.75;1.80;;;;;;;;;;5046826;28;20052;-66
2023/10/22 01:24:08;;;;;;;5.57;1.73;;;16.60;97.60;;;;;;5048115;28;20080;-65
2023/10/22 01:26:43;;;;;;;5.50;1.80;;;16.70;96.60;;;;;;5050130;28;20037;-66
2023/10/22 01:29:13;;;;;;;4.75;1.60;;;;;;;;;;5033657;28;20071;-66
2023/10/22 01:31:39;;;;;;;4.00;1.60;;;16.60;97.60;;;;;;5040907;28;20056;-66
2023/10/22 01:34:05;;;;;;;3.72;1.30;;;;;;;;;;5049189;28;20045;-66
2023/10/22 01:36:32;;;;;;;4.80;1.30;;;;;;;;;;5047808;28;20450;-66
2023/10/22 01:38:58;;;;;;;5.07;1.80;;;;;;;;;;5049176;28;20041;-66
2023/10/22 01:41:24;;;;;;;4.40;1.45;;;;;;;;;;5042378;28;20049;-65
2023/10/22 01:43:50;;;;;;;5.32;1.50;;;16.50;97.40;;;;;;5045401;28;20057;-66
2023/10/22 01:46:16;;;;;;;3.97;1.17;;;16.60;97.50;;;;;;5048437;28;20043;-66
2023/10/22 01:48:41;;;;;;;4.50;1.60;;;16.50;97.40;;;;;;5047064;28;20033;-66
2023/10/22 01:51:07;;;;;;;4.22;1.38;;;;;;;;;;5046520;28;20033;-66
2023/10/22 01:53:34;;;;;;;3.85;1.52;;;;;;;;;;5050944;28;20441;-66
2023/10/22 01:56:00;;;;;;;5.40;1.45;;;;;;;;;;5051228;28;20129;-67
2023/10/22 01:58:26;;;;;;;4.95;1.75;;;;;;;;;;5049649;28;20084;-71
2023/10/22 02:01:02;;;;;;;4.43;1.40;;;16.40;97.40;;;;;;5049964;28;20040;-68
2023/10/22 02:03:28;;;;;;;4.35;1.40;;;;;;;;;;5031258;28;20108;-69
2023/10/22 02:05:54;;;;;;;5.03;1.55;;;16.50;97.40;;;;;;5050757;28;20049;-67
2023/10/22 02:08:20;;;;;;;4.28;1.33;;;;;;;;;;5048128;28;20051;-66
2023/10/22 02:10:47;;;;;;;3.15;1.30;;;16.70;97.40;;;;;;5051073;28;20037;-66
2023/10/22 02:13:13;;;;;;;4.43;1.30;;;16.50;97.00;;;;;;5045638;28;20049;-66
2023/10/22 02:15:39;;;;;;;6.10;1.80;;;;;;;;;;5048606;28;20048;-70
2023/10/22 02:18:05;;;;;;;6.47;1.23;;;;;;;;;;5049964;28;20114;-66
2023/10/22 02:20:31;;;;;;;4.50;1.50;;;16.60;97.40;;;;;;5048600;28;20107;-69
2023/10/22 02:22:59;;;;;;;4.30;1.48;;;16.30;95.90;;;;;;5041745;28;20048;-66
2023/10/22 02:25:25;;;;;;;6.82;1.65;;;;;;;;;;5045779;28;20453;-68
2023/10/22 02:27:51;;;;;;;4.50;1.45;;;16.40;96.10;;;;;;5050569;28;20103;-66
2023/10/22 02:30:17;;;;;;;4.90;1.23;;;16.40;97.30;;;;;;5049465;28;20044;-66
2023/10/22 02:32:43;;;;;;;5.60;1.65;;;16.60;97.30;;;;;;5047627;28;20075;-68
2023/10/22 02:35:10;;;;;;;3.67;1.23;;;;;;;;;;5028779;28;20048;-67
2023/10/22 02:37:36;;;;;;;4.50;1.30;;;16.30;97.30;;;;;;5049455;28;20059;-69
2023/10/22 02:40:03;;;;;;;5.38;1.45;;;16.50;97.40;;;;;;5033641;28;20132;-66
2023/10/22 02:42:29;;;;;;;4.53;1.50;;;16.40;97.40;;;;;;5044076;28;20049;-66
2023/10/22 02:44:55;;;;;;;6.43;1.20;;;16.30;96.20;;;;;;5047338;28;20147;-68
2023/10/22 02:47:21;;;;;;;3.80;1.20;;;16.40;97.50;;;;;;5045339;28;20045;-68
2023/10/22 02:49:47;;;;;;;4.85;1.20;;;16.40;97.50;;;;;;5050686;28;20033;-71
2023/10/22 02:52:12;;;;;;;3.80;1.15;;;16.40;97.50;;;;;;5046120;28;20498;-65
2023/10/22 02:54:38;;;;;;;3.10;0.95;;;16.30;96.60;;;;;;5049651;28;20148;-65
2023/10/22 02:57:05;;;;;;;4.32;1.40;;;16.30;97.60;;;;;;5049177;28;20037;-66
2023/10/22 02:59:31;;;;;;;2.65;1.13;;;;;;;;;;5049760;28;20132;-66
2023/10/22 03:01:57;;;;;;;4.20;1.10;;;;;;;;;;5045669;28;20092;-69
2023/10/22 03:04:23;;;;;;;5.25;1.25;;;;;;;;;;5043199;28;20041;-67
2023/10/22 03:06:49;;;;;;;6.18;1.33;;;16.30;97.70;;;;;;5048609;28;20040;-69
2023/10/22 03:09:15;;;;;;;2.90;1.15;;;16.40;97.80;;;;;;5048713;28;20033;-67
2023/10/22 03:11:41;;;;;;;3.47;1.02;;;16.30;97.80;;;;;;5048476;28;20048;-69
2023/10/22 03:14:07;;;;;;;2.78;0.93;;;16.20;97.60;;;;;;5047601;28;20513;-68
2023/10/22 03:16:33;;;;;;;5.70;1.38;;;;;;;;;;5043499;28;20049;-69
2023/10/22 03:18:59;;;;;;;4.80;1.20;;;16.30;97.80;;;;;;5044111;28;20088;-70
2023/10/22 03:21:28;;;;;;;2.63;1.10;;;16.40;97.90;;;;;;5044801;28;20049;-69
2023/10/22 03:23:54;;;;;;;3.90;1.33;;;16.40;97.90;;;;;;5010905;28;20037;-66
2023/10/22 03:26:20;;;;;;;4.10;1.35;;;;;;;;;;5015821;28;20047;-67
2023/10/22 03:28:46;;;;;;;4.93;1.17;;;16.40;96.50;;;;;;5029156;28;20040;-67
2023/10/22 03:31:12;;;;;;;4.80;1.23;;;16.30;97.90;;;;;;5045560;28;20108;-69
2023/10/22 03:33:38;;;;;;;3.15;1.10;;;16.40;97.90;;;;;;5049073;28;20494;-66
2023/10/22 03:36:04;;;;;;;4.45;1.38;;;;;;;;;;5031385;28;20037;-69
2023/10/22 03:38:31;;;;;;;4.25;1.20;;;16.30;97.90;;;;;;5047844;28;20102;-67
2023/10/22 03:41:01;;;;;;;2.90;1.05;;;16.30;97.80;;;;;;5047382;28;20383;-68
2023/10/22 03:43:28;;;;;;;5.57;1.20;;;16.40;98.00;;;;;;5032387;28;20055;-66
2023/10/22 03:45:55;;;;;;;4.10;1.30;;;16.40;97.90;;;;;;5017922;28;20402;-66
2023/10/22 03:48:22;;;;;;;3.83;1.27;;;16.40;98.00;;;;;;5051890;28;20060;-66
2023/10/22 03:50:47;;;;;;;4.00;1.00;;;16.40;98.00;;;;;;5054230;28;20124;-67
2023/10/22 03:53:13;;;;;;;3.70;1.20;;;;;;;;;;5053517;28;20447;-67
2023/10/22 03:55:39;;;;;;;4.43;1.27;;;16.50;98.10;;;;;;5052764;28;20115;-67
2023/10/22 03:58:06;;;;;;;5.38;1.38;;;16.50;97.80;;;;;;5033682;28;20067;-70
2023/10/22 04:00:32;;;;;;;3.67;1.30;;;16.30;98.00;;;;;;5051620;28;20053;-67
2023/10/22 04:02:59;;;;;;;3.50;1.20;;;16.60;97.70;;;;;;5046555;28;20037;-66
2023/10/22 04:05:24;;;;;;;2.85;0.90;;;16.30;97.00;;;;;;5052337;28;20045;-70
2023/10/22 04:07:50;;;;;;;3.88;1.40;;;16.50;98.10;;;;;;5051424;28;20103;-67
2023/10/22 04:10:16;;;;;;;3.40;1.15;;;16.30;98.00;;;;;;5047808;28;20044;-67
2023/10/22 04:12:42;;;;;;;3.45;1.00;;;;;;;;;;5049756;28;20056;-67
2023/10/22 04:15:08;;;;;;;3.50;1.15;;;16.30;98.10;;;;;;5044102;28;20029;-66
2023/10/22 04:17:34;;;;;;;3.05;1.10;;;16.30;96.90;;;;;;5015711;28;20379;-67
2023/10/22 04:20:01;;;;;;;2.63;1.10;;;;;;;;;;4993515;28;20473;-66
2023/10/22 04:22:26;;;;;;;3.38;1.08;;;16.30;97.90;;;;;;5050715;28;20460;-69
2023/10/22 04:24:53;;;;;;;3.50;1.13;;;16.40;98.10;;;;;;5046524;28;20076;-67
2023/10/22 04:27:19;;;;;;;3.67;1.27;;;;;;;;;;5051896;28;20457;-67
2023/10/22 04:29:46;;;;;;;2.22;0.90;;;;;;;;;;5048659;28;20048;-70
2023/10/22 04:32:13;;;;;;;4.35;1.02;;;16.40;98.20;;;;;;5048466;28;20040;-70
2023/10/22 04:34:39;;;;;;;3.33;1.10;;;16.30;98.20;;;;;;5031071;28;20056;-71
2023/10/22 04:37:06;;;;;;;2.17;0.93;;;;;;;;;;5052114;28;20076;-67
2023/10/22 04:39:32;;;;;;;2.50;0.95;;;15.90;96.80;;;;;;5048430;28;20460;-69
2023/10/22 04:41:58;;;;;;;3.50;0.90;;;16.30;97.70;;;;;;5048376;28;20044;-66
2023/10/22 04:44:23;;;;;;;3.92;1.08;;;16.10;98.20;;;;;;5049599;28;20049;-66
2023/10/22 04:46:52;;;;;;;2.78;0.90;;;16.20;98.30;;;;;;5050147;28;20437;-66
2023/10/22 04:49:18;;;;;;;3.97;1.23;;;16.40;98.40;;;;;;5049390;28;20117;-68
2023/10/22 04:51:44;;;;;;;3.38;0.82;;;16.20;98.40;;;;;;5040999;28;20124;-69
2023/10/22 04:54:10;;;;;;;3.60;1.10;;;;;;;;;;5046509;28;20510;-69
2023/10/22 04:56:36;;;;;;;3.28;1.00;;;;;;;;;;5052772;28;20053;-67
2023/10/22 04:59:04;;;;;;;4.60;1.02;;;16.40;98.60;;;;;;5048564;28;20506;-69
2023/10/22 05:01:30;;;;;;;3.47;1.00;;;16.20;98.60;;;;;;5044365;28;20060;-66
2023/10/22 05:03:55;;;;;;;2.55;0.90;;;16.20;98.60;;;;;;5029921;28;20049;-67
2023/10/22 05:06:22;;;;;;;2.10;0.90;;;;;;;;;;5049658;28;20068;-67
2023/10/22 05:08:48;;;;;;;2.83;1.02;;;;;;;;;;5046946;28;20033;-68
2023/10/22 05:11:15;;;;;;;5.68;1.23;;;16.40;98.80;;;;;;5047297;28;20455;-66
2023/10/22 05:13:41;;;;;;;2.38;0.90;;;16.40;98.80;;;;;;5047778;28;20049;-66
2023/10/22 05:16:09;;;;;;;3.60;0.90;;;16.20;97.90;;;;;;5050767;28;20502;-67
2023/10/22 05:18:36;;;;;;;2.30;0.85;;;16.40;97.40;;;;;;5049313;28;20080;-66
2023/10/22 05:21:04;;;;;;;2.63;0.95;;;16.20;97.70;;;;;;5041310;28;20075;-66
2023/10/22 05:23:30;;;;;;;4.00;1.00;;;16.20;97.30;;;;;;5047050;28;20486;-69
2023/10/22 05:26:23;;;;;;;4.38;0.80;;;16.30;98.10;;;;;;5043353;28;20037;-70
2023/10/22 05:28:49;;;;;;;3.50;1.00;;;;;;;;;;5033061;28;20056;-66
2023/10/22 05:31:17;;;;;;;2.25;0.98;;;16.30;98.90;;;;;;5048458;28;20040;-68
2023/10/22 05:33:43;;;;;;;3.50;1.02;;;16.30;98.50;;;;;;5046753;28;20438;-67
2023/10/22 05:36:16;;;;;;;2.80;0.80;;;16.30;97.20;;;;;;5048564;28;20147;-70
2023/10/22 05:38:42;;;;;;;3.35;0.85;;;16.30;98.90;;;;;;5045350;28;20045;-66
2023/10/22 05:41:09;;;;;;;1.60;0.70;;;16.30;97.90;;;;;;5044632;28;20110;-69
2023/10/22 05:43:35;;;;;;;1.95;0.68;;;;;;;;;;5050871;28;20122;-68
2023/10/22 05:46:01;;;;;;;3.42;0.93;;;16.50;99.10;;;;;;5048091;28;20114;-66
2023/10/22 05:48:27;;;;;;;2.53;0.90;;;;;;;;;;5051439;28;20048;-69
2023/10/22 05:50:53;;;;;;;2.80;0.90;;;16.40;99.10;;;;;;5046363;28;20094;-66
2023/10/22 05:53:19;;;;;;;2.90;0.88;;;;;;;;;;5033437;28;20048;-66
2023/10/22 05:55:45;;;;;;;2.05;0.80;;;;;;;;;;5051107;28;21327;-66
2023/10/22 05:58:11;;;;;;;1.40;0.60;;;;;;;;;;5049407;28;20042;-66
2023/10/22 06:00:38;;;;;;;3.47;1.25;;;;;;;;;;5050379;28;20041;-67
2023/10/22 06:03:04;;;;;;;1.60;0.80;;;;;;;;;;5049109;28;20093;-66
2023/10/22 06:05:31;;;;;;;2.25;0.80;;;;;;;;;;5050492;28;20098;-66
2023/10/22 06:07:57;;;;;;;2.05;0.80;;;16.20;99.20;;;;;;5051637;28;20073;-68
2023/10/22 06:10:22;;;;;;;2.00;0.73;;;16.40;99.00;;;;;;5050190;28;20099;-68
2023/10/22 06:12:49;;;;;;;1.33;0.68;;;16.40;99.20;;;;;;5048656;28;20041;-69
2023/10/22 06:15:16;;;;;;;1.95;0.80;;;16.40;98.80;;;;;;5046116;28;20049;-69
2023/10/22 06:17:41;;;;;;;2.38;0.90;;;16.40;99.20;;;;;;5048341;28;20048;-66
2023/10/22 06:20:08;;;;;;;1.20;0.68;;;16.70;99.20;;;;;;5045194;28;20045;-66
2023/10/22 06:22:34;;;;;;;1.63;0.82;;;16.60;99.20;;;;;;5046919;28;20437;-69
2023/10/22 06:25:00;;;;;;;1.85;0.90;;;16.50;99.20;;;;;;5045443;28;20105;-66
2023/10/22 06:27:26;;;;;;;2.22;0.73;;;;;;;;;;5045385;28;20140;-69
2023/10/22 06:29:53;;;;;;;1.38;0.68;;;16.50;99.10;;;;;;5048947;28;20157;-69
2023/10/22 06:32:20;;;;;;;2.00;0.88;;;16.70;99.20;;;;;;5045084;28;20080;-66
2023/10/22 06:34:46;;;;;;;2.70;0.80;;;;;;;;;;5038426;28;20050;-67
2023/10/22 06:37:12;;;;;;;1.88;0.85;;;16.50;99.10;;;;;;5043581;28;20495;-67
2023/10/22 06:39:38;;;;;;;1.20;0.80;;;16.60;99.20;;;;;;5044828;28;20049;-69
2023/10/22 06:42:04;;;;;;;1.98;0.65;;;16.70;99.20;;;;;;5043385;28;20056;-66
2023/10/22 06:44:30;;;;;;;1.45;0.73;;;16.50;99.20;;;;;;5048292;28;20056;-68
2023/10/22 06:46:56;;;;;;;2.03;0.57;;;;;;;;;;5041330;28;20190;-66
2023/10/22 06:49:22;;;;;;;1.55;0.63;;;;;;;;;;5048983;28;20037;-66
2023/10/22 06:51:49;;;;;;;1.85;0.70;;;;;;;;;;5045459;28;20589;-64
2023/10/22 06:54:14;;;;;;;1.98;0.73;;;16.50;97.90;;;;;;5042699;28;20060;-65
2023/10/22 06:56:41;;;;;;;1.13;0.70;;;16.60;99.20;;;;;;5047633;28;20475;-65
2023/10/22 06:59:08;;;;;;;2.40;0.60;;;;;;;;;;5045728;28;20048;-66
2023/10/22 07:01:35;;;;;;;1.88;0.80;;;;;;;;;;5047089;28;20662;-65
2023/10/22 07:04:01;;;;;;;1.27;0.50;;;;;;;;;;5048306;28;20144;-65
2023/10/22 07:06:27;;;;;;;1.50;0.50;;;16.60;99.20;;;;;;5046676;28;20073;-64
2023/10/22 07:08:53;;;;;;;1.15;0.50;;;;;;;;;;5050783;28;20153;-65
2023/10/22 07:11:19;;;;;;;2.42;0.93;;;16.60;97.90;;;;;;5046572;28;20033;-69
2023/10/22 07:13:45;;;;;;;1.35;0.55;;;17.10;99.20;;;;;;5053270;28;20047;-66
2023/10/22 07:16:11;;;;;;;1.80;0.70;;;16.90;98.30;;;;;;5032465;28;20048;-66
2023/10/22 07:18:39;;;;;;;0.82;0.40;;;16.80;99.10;;;;;;5045863;28;20067;-66
2023/10/22 07:21:05;;;;;;;1.42;0.50;;;16.90;99.10;;;;;;5048689;28;20051;-66
2023/10/22 07:23:31;;;;;;;1.65;0.55;;;;;;;;;;5048023;28;20056;-65
2023/10/22 07:25:58;;;;;;;1.95;0.60;;;;;;;;;;5039704;28;20103;-64
2023/10/22 07:28:24;;;;;;;1.85;0.52;;;16.70;98.10;;;;;;5033076;28;20040;-65
2023/10/22 07:30:51;;;;;;;1.02;0.68;;;16.70;99.00;;;;;;5048659;28;20056;-65
2023/10/22 07:33:17;;;;;;;0.65;0.40;;;16.80;98.60;;;;;;5030800;28;20052;-64
2023/10/22 07:35:53;;;;;;;3.13;0.60;;;17.00;97.80;;;;;;5047895;28;20076;-65
2023/10/22 07:38:20;;;;;;;2.47;0.70;;;;;;;;;;5049687;28;20059;-65
2023/10/22 07:40:47;;;;;;;4.00;1.10;;;;;;;;;;5051000;28;20429;-65
2023/10/22 07:43:14;;;;;;;3.55;0.70;;;17.00;98.10;;;;;;5050134;28;20045;-65
2023/10/22 07:45:40;;;;;;;2.42;0.90;;;16.90;99.10;;;;;;5055279;28;20406;-66
2023/10/22 07:48:06;;;;;;;2.17;0.70;;;17.00;99.10;;;;;;5046713;28;20041;-66
2023/10/22 07:50:32;;;;;;;3.08;0.80;;;17.00;99.10;;;;;;5050574;28;20084;-65
2023/10/22 07:52:59;;;;;;;3.85;1.15;;;;;;;;;;5049988;28;20505;-65
2023/10/22 07:55:25;;;;;;;3.25;1.10;;;;;;;;;;5052032;28;20581;-65
2023/10/22 07:57:51;;;;;;;2.78;1.00;;;;;;;;;;5048859;28;20115;-65
2023/10/22 08:00:17;;;;;;;2.55;0.73;;;17.10;99.00;;;;;;5047860;28;20110;-65
2023/10/22 08:02:43;;;;;;;2.45;0.90;;;;;;;;;;5050708;28;20033;-65
2023/10/22 08:05:10;;;;;;;3.67;1.10;;;;;;;;;;5052906;28;20083;-65
2023/10/22 08:07:36;;;;;;;2.45;1.08;;;;;;;;;;5050907;28;20064;-65
2023/10/22 08:10:02;;;;;;;3.08;0.93;;;17.00;99.00;;;;;;5043870;28;20071;-65
2023/10/22 08:12:28;;;;;;;4.72;1.45;;;;;;;;;;5050476;28;20059;-65
2023/10/22 08:14:55;;;;;;;1.30;0.70;;;;;;;;;;5052362;28;20045;-65
2023/10/22 08:17:21;;;;;;;2.50;0.73;;;17.00;99.00;;;;;;5051068;28;20040;-65
2023/10/22 08:19:46;;;;;;;3.90;1.00;;;16.90;98.90;;;;;;5038168;28;20064;-64
2023/10/22 08:22:13;;;;;;;3.03;1.10;;;;;;;;;;5032566;28;20052;-65
2023/10/22 08:24:39;;;;;;;3.45;1.30;;;;;;;;;;5052783;28;20045;-65
2023/10/22 08:27:05;;;;;;;5.35;1.40;;;;;;;;;;5053606;28;20067;-65
2023/10/22 08:29:32;;;;;;;2.88;1.10;;;;;;;;;;5049378;28;20492;-65
2023/10/22 08:31:58;;;;;;;2.67;1.02;;;17.20;97.50;;;;;;5049058;28;20045;-70
2023/10/22 08:34:24;;;;;;;3.38;1.00;;;;;;;;;;5047146;28;20044;-66
2023/10/22 08:36:51;;;;;;;3.40;1.08;;;;;;;;;;5047870;28;20118;-70
2023/10/22 08:39:17;;;;;;;2.97;1.02;;;17.00;98.80;;;;;;5052467;28;20055;-66
2023/10/22 08:41:50;;;;;;;3.42;1.30;;;17.10;98.30;;;;;;5052630;28;20044;-66
2023/10/22 08:44:16;;;;;;;3.22;1.20;;;16.90;97.90;;;;;;5052402;28;20045;-68
2023/10/22 08:46:42;;;;;;;2.92;0.93;;;17.10;98.80;;;;;;5048534;28;20477;-64
2023/10/22 08:49:09;;;;;;;3.00;1.20;;;17.00;98.80;;;;;;5051591;28;20041;-67
2023/10/22 08:51:35;;;;;;;3.42;1.02;;;;;;;;;;5035732;28;20065;-67
2023/10/22 08:54:04;;;;;;;4.47;1.13;;;;;;;;;;5048700;28;20053;-67
2023/10/22 08:56:31;;;;;;;3.33;1.33;;;17.10;98.80;;;;;;5029610;28;20414;-68
2023/10/22 08:59:01;;;;;;;5.82;1.58;;;17.10;97.00;;;;;;5050832;28;20052;-67
2023/10/22 09:01:27;;;;;;;3.17;1.20;;;17.20;98.70;;;;;;5033397;28;20044;-66
2023/10/22 09:03:54;;;;;;;3.72;1.38;;;17.30;98.60;;;;;;5051544;28;20371;-66
2023/10/22 09:06:22;;;;;;;4.28;1.48;;;;;;;;;;5043778;28;20135;-66
2023/10/22 09:08:48;;;;;;;3.70;1.52;;;;;;;;;;5051029;28;20486;-66
2023/10/22 09:11:17;;;;;;;4.25;1.25;;;17.20;98.60;;;;;;5051742;28;20490;-68
2023/10/22 09:13:46;;;;;;;4.22;1.45;;;17.10;98.50;;;;;;5049155;28;20055;-67
2023/10/22 09:16:26;;;;;;;4.47;1.40;;;17.30;98.50;;;;;;5035513;28;20049;-66
2023/10/22 09:18:52;;;;;;;4.60;1.55;;;;;;;;;;5045970;28;20057;-67
2023/10/22 09:21:18;;;;;;;4.72;1.55;;;;;;;;;;5033558;28;20049;-67
2023/10/22 09:23:44;;;;;;;4.10;1.50;;;17.40;98.50;;;;;;5032343;28;20503;-66
2023/10/22 09:26:10;;;;;;;5.22;1.50;;;17.40;98.50;;;;;;5028666;28;20041;-67
2023/10/22 09:28:36;;;;;;;6.40;1.73;;;17.40;98.40;;;;;;5047823;28;20103;-67
2023/10/22 09:31:03;;;;;;;6.82;1.52;;;17.60;98.50;;;;;;5051202;28;20490;-67
2023/10/22 09:33:38;;;;;;;4.05;1.50;;;17.30;96.70;;;;;;5049941;28;20136;-67
2023/10/22 09:36:07;;;;;;;7.03;1.55;;;17.50;98.50;;;;;;5051818;28;20049;-71
2023/10/22 09:38:40;;;;;;;8.15;2.20;;;17.50;96.90;;;;;;5034468;28;20044;-68
2023/10/22 09:41:06;;;;;;;10.77;2.10;;;17.60;98.40;;;;;;5032280;28;20049;-70
2023/10/22 09:43:32;;;;;;;10.38;2.15;;;17.50;98.30;;;;;;5023739;28;20048;-67
2023/10/22 09:45:58;;;;;;;30.90;4.05;;;;;;;;;;5031580;28;20037;-65
2023/10/22 09:48:24;;;;;;;38.65;3.60;;;;;;;;;;5031773;28;20391;-66
2023/10/22 09:50:50;;;;;;;34.00;4.05;;;;;;;;;;5032000;28;20056;-66
2023/10/22 09:53:17;;;;;;;29.88;3.40;;;17.50;97.00;;;;;;5043316;28;20132;-66
2023/10/22 09:55:48;;;;;;;18.45;2.88;;;17.80;97.20;;;;;;5032882;28;20048;-66
2023/10/22 09:58:16;;;;;;;26.20;3.80;;;17.70;97.10;;;;;;5033997;28;20049;-67
2023/10/22 10:00:43;;;;;;;22.65;2.97;;;;;;;;;;5034019;28;20486;-67
2023/10/22 10:03:09;;;;;;;18.52;2.65;;;17.90;98.10;;;;;;5044763;28;20037;-67
2023/10/22 10:05:36;;;;;;;15.27;2.40;;;;;;;;;;5048962;28;20044;-67
2023/10/22 10:08:03;;;;;;;12.77;2.42;;;;;;;;;;5048654;28;20051;-67
2023/10/22 10:10:29;;;;;;;10.55;1.95;;;18.10;96.90;;;;;;5050787;28;20052;-66
2023/10/22 10:12:58;;;;;;;11.73;1.95;;;18.00;97.90;;;;;;5032215;28;20045;-68
2023/10/22 10:15:31;;;;;;;8.00;1.80;;;18.00;98.10;;;;;;5031808;28;20163;-71
2023/10/22 10:17:57;;;;;;;8.15;1.90;;;18.10;98.20;;;;;;5043949;28;20065;-68
2023/10/22 10:20:26;;;;;;;8.05;1.60;;;18.30;98.10;;;;;;5051770;28;20154;-71
2023/10/22 10:23:06;;;;;;;9.77;2.42;;;18.40;98.20;;;;;;5044786;28;20410;-70
2023/10/22 10:25:33;;;;;;;7.35;1.80;;;18.30;97.20;;;;;;5046861;28;20088;-67
2023/10/22 10:28:09;;;;;;;7.57;1.88;;;18.40;97.00;;;;;;5034452;28;20115;-68
2023/10/22 10:30:35;;;;;;;10.07;1.85;;;18.50;98.20;;;;;;5031885;28;20049;-66
2023/10/22 10:33:01;;;;;;;5.70;1.90;;;;;;;;;;5045337;28;20138;-67
2023/10/22 10:35:28;;;;;;;6.20;1.60;;;18.40;96.80;;;;;;5045356;28;20402;-67
2023/10/22 10:38:13;;;;;;;8.02;1.85;;;18.70;98.10;;;;;;5049241;28;20045;-67
2023/10/22 10:40:52;;;;;;;6.00;1.80;;;18.60;97.90;;;;;;5045156;28;20049;-67
2023/10/22 10:43:18;;;;;;;5.35;1.52;;;18.50;97.80;;;;;;5040732;28;20049;-67
2023/10/22 10:46:22;;;;;;;6.28;1.80;;;18.50;97.80;;;;;;5048284;28;20348;-66
2023/10/22 10:48:48;;;;;;;;;;;18.50;96.40;;;;;;5048562;28;20107;-69
2023/10/22 10:51:18;;;;;;;6.18;1.63;;;18.70;96.60;;;;;;5050086;28;19943;-86
2023/10/22 10:54:12;;;;;;;6.05;1.40;;;18.60;97.60;;;;;;5028379;28;20049;-71
2023/10/22 10:56:48;;;;;;;8.00;1.85;;;18.60;97.60;;;;;;5043168;28;20041;-79
2023/10/22 10:59:36;;;;;;;4.25;1.40;;;18.70;97.60;;;;;;5049249;28;20111;-71
2023/10/22 11:02:03;;;;;;;3.95;1.10;;;18.70;96.50;;;;;;5015143;28;20053;-67
2023/10/22 11:04:29;;;;;;;4.18;1.40;;;18.60;97.50;;;;;;5011899;28;20107;-67
2023/10/22 11:06:56;;;;;;;6.18;1.30;;;18.60;97.50;;;;;;5039354;28;20060;-66
2023/10/22 11:09:22;;;;;;;3.80;1.08;;;;;;;;;;5050423;28;20179;-72
2023/10/22 11:11:58;;;;;;;4.95;1.35;;;18.80;97.40;;;;;;5048400;28;20433;-71
2023/10/22 11:14:25;;;;;;;5.30;1.52;;;18.80;95.80;;;;;;5045980;28;20033;-66
2023/10/22 11:16:56;;;;;;;4.57;1.60;;;18.80;96.10;;;;;;5044961;28;20052;-75
2023/10/22 11:19:30;;;;;;;4.28;1.20;;;18.80;96.70;;;;;;5044450;28;20057;-68
2023/10/22 11:21:57;;;;;;;4.85;1.23;;;18.70;95.50;;;;;;5023435;28;20057;-68
2023/10/22 11:24:30;;;;;;;5.82;1.70;;;18.80;95.70;;;;;;5013902;28;20045;-66
2023/10/22 11:26:59;;;;;;;4.45;1.10;;;18.70;93.90;;;;;;5035840;28;20049;-68
2023/10/22 11:29:25;;;;;;;3.70;1.10;;;18.70;95.60;;;;;;5049215;28;20069;-67
2023/10/22 11:31:58;;;;;;;4.10;1.10;;;18.60;95.50;;;;;;4999518;28;20122;-67
2023/10/22 11:34:25;;;;;;;3.10;1.10;;;18.60;94.70;;;;;;5039716;28;20049;-67
2023/10/22 11:36:58;;;;;;;4.10;1.30;;;18.40;95.00;;;;;;5042317;28;20125;-67
2023/10/22 11:39:32;;;;;;;5.15;1.25;;;18.30;94.80;;;;;;5015229;28;20558;-66
2023/10/22 11:41:58;;;;;;;6.25;1.42;;;18.30;94.70;;;;;;5030424;28;20042;-66
2023/10/22 11:44:31;;;;;;;3.40;1.05;;;18.30;94.60;;;;;;5033605;28;20060;-67
2023/10/22 11:47:01;;;;;;;3.38;1.10;;;18.40;94.60;;;;;;5031052;28;20044;-66
2023/10/22 11:49:27;;;;;;;3.45;0.90;;;18.30;94.50;;;;;;5023200;28;20053;-66
2023/10/22 11:51:53;;;;;;;5.80;1.27;;;18.20;94.60;;;;;;5032508;28;20052;-66
2023/10/22 11:54:20;;;;;;;4.10;1.00;;;;;;;;;;5038710;28;20053;-66
2023/10/22 11:56:47;;;;;;;3.60;1.15;;;18.10;93.10;;;;;;5029323;28;20135;-68
2023/10/22 11:59:13;;;;;;;3.55;1.00;;;18.20;94.30;;;;;;5040438;28;20430;-66
2023/10/22 12:01:40;;;;;;;3.53;1.17;;;18.10;94.60;;;;;;5053811;28;20103;-66
2023/10/22 12:04:06;;;;;;;4.55;0.98;;;18.10;94.50;;;;;;5052660;28;20045;-66
2023/10/22 12:06:32;;;;;;;2.63;0.73;;;;;;;;;;5040355;28;20045;-66
2023/10/22 12:08:58;;;;;;;3.88;0.95;;;;;;;;;;5045139;28;20099;-66
2023/10/22 12:11:25;;;;;;;3.60;1.00;;;18.00;94.30;;;;;;5044495;28;20045;-68
2023/10/22 12:13:51;;;;;;;3.20;0.85;;;;;;;;;;5053105;28;20092;-66
2023/10/22 12:16:17;;;;;;;4.93;1.17;;;17.90;94.30;;;;;;5035092;28;20045;-66
2023/10/22 12:18:43;;;;;;;2.28;0.90;;;18.00;94.30;;;;;;5042515;28;20052;-66
2023/10/22 12:21:09;;;;;;;4.20;1.08;;;17.90;94.00;;;;;;5033020;28;20507;-67
2023/10/22 12:23:35;;;;;;;3.95;1.10;;;18.00;94.30;;;;;;5042103;28;20056;-65
2023/10/22 12:26:02;;;;;;;3.03;0.80;;;;;;;;;;5040245;28;20053;-66
2023/10/22 12:28:28;;;;;;;3.15;1.02;;;;;;;;;;5034287;28;20133;-66
2023/10/22 12:30:55;;;;;;;3.78;1.20;;;;;;;;;;5035860;28;20073;-67
2023/10/22 12:33:21;;;;;;;2.55;0.77;;;;;;;;;;5032605;28;20071;-71
2023/10/22 12:35:47;;;;;;;2.47;0.90;;;17.70;94.10;;;;;;5051285;28;20139;-66
2023/10/22 12:38:12;;;;;;;2.58;1.02;;;17.60;94.00;;;;;;5051067;28;20117;-66
2023/10/22 12:40:39;;;;;;;3.78;1.10;;;;;;;;;;5032785;28;20041;-66
2023/10/22 12:43:05;;;;;;;3.60;1.00;;;17.80;94.00;;;;;;5033160;28;20045;-66
2023/10/22 12:45:31;;;;;;;3.80;0.98;;;;;;;;;;5041327;28;20125;-65
2023/10/22 12:47:57;;;;;;;1.65;0.80;;;17.70;94.10;;;;;;5032875;28;20049;-66
2023/10/22 12:50:22;;;;;;;3.72;0.90;;;17.60;94.00;;;;;;5033476;28;20033;-66
2023/10/22 12:52:48;;;;;;;3.17;0.90;;;17.70;93.80;;;;;;5032600;28;20158;-70
2023/10/22 12:55:14;;;;;;;2.53;0.93;;;17.60;93.80;;;;;;5032541;28;20136;-66
2023/10/22 12:57:40;;;;;;;2.90;0.88;;;17.60;93.80;;;;;;5045786;28;20550;-65
2023/10/22 13:00:09;;;;;;;2.15;0.85;;;17.70;93.80;;;;;;5032905;28;20140;-66
2023/10/22 13:02:35;;;;;;;4.22;1.00;;;17.70;93.70;;;;;;5032633;28;20055;-65
2023/10/22 13:05:01;;;;;;;3.38;0.82;;;17.70;93.70;;;;;;5033157;28;20044;-66
2023/10/22 13:07:27;;;;;;;1.95;0.57;;;17.70;93.70;;;;;;5035141;28;20049;-68
2023/10/22 13:09:52;;;;;;;3.65;0.82;;;17.60;92.40;;;;;;5050516;28;20087;-70
2023/10/22 13:12:18;;;;;;;2.70;1.00;;;17.70;93.40;;;;;;5040541;28;20136;-67
2023/10/22 13:14:44;;;;;;;2.70;0.82;;;17.70;93.50;;;;;;5032119;28;20487;-69
2023/10/22 13:17:10;;;;;;;1.67;0.73;;;17.60;93.50;;;;;;5037266;28;20037;-66
2023/10/22 13:19:36;;;;;;;2.08;1.05;;;17.60;93.50;;;;;;5040356;28;20080;-67
2023/10/22 13:22:02;;;;;;;1.90;0.88;;;17.60;93.50;;;;;;5050573;28;20140;-67